sensor_id;sensor_type;location;lat;lon;timestamp;temperature;humidity
12853;DHT22;6495;51.808;7.478;2022-10-14T00:01:19;14.40;99.90
12853;DHT22;6495;51.808;7.478;2022-10-14T00:03:50;14.40;99.90
12853;DHT22;6495;51.808;7.478;2022-10-14T00:06:19;14.40;99.90
12853;DHT22;6495;51.808;7.478;2022-10-14T00:08:50;14.40;99.90
12853;DHT22;6495;51.808;7.478;2022-10-14T00:11:20;14.40;99.90
12853;DHT22;6495;51.808;7.478;2022-10-14T00:13:49;14.40;99.90
12853;DHT22;6495;51.808;7.478;2022-10-14T00:16:22;14.40;99.90
12853;DHT22;6495;51.808;7.478;2022-10-14T00:18:52;14.40;99.90
12853;DHT22;6495;51.808;7.478;2022-10-14T00:21:20;14.40;99.90
12853;DHT22;6495;51.808;7.478;2022-10-14T00:23:49;14.30;99.90
12853;DHT22;6495;51.808;7.478;2022-10-14T00:26:19;14.30;99.90
12853;DHT22;6495;51.808;7.478;2022-10-14T00:28:49;14.30;99.90
12853;DHT22;6495;51.808;7.478;2022-10-14T00:31:19;14.30;99.90
12853;DHT22;6495;51.808;7.478;2022-10-14T00:33:47;14.30;99.90
12853;DHT22;6495;51.808;7.478;2022-10-14T00:36:18;14.30;99.90
12853;DHT22;6495;51.808;7.478;2022-10-14T00:38:47;14.30;99.90
12853;DHT22;6495;51.808;7.478;2022-10-14T00:41:19;14.30;99.90
12853;DHT22;6495;51.808;7.478;2022-10-14T00:43:53;14.30;99.90
12853;DHT22;6495;51.808;7.478;2022-10-14T00:46:24;14.30;99.90
12853;DHT22;6495;51.808;7.478;2022-10-14T00:48:54;14.30;99.90
12853;DHT22;6495;51.808;7.478;2022-10-14T00:51:23;14.30;99.90
12853;DHT22;6495;51.808;7.478;2022-10-14T00:53:51;14.30;99.90
12853;DHT22;6495;51.808;7.478;2022-10-14T00:56:24;14.30;99.90
12853;DHT22;6495;51.808;7.478;2022-10-14T00:58:55;14.30;99.90
12853;DHT22;6495;51.808;7.478;2022-10-14T01:01:24;14.30;99.90
12853;DHT22;6495;51.808;7.478;2022-10-14T01:03:52;14.30;99.90
12853;DHT22;6495;51.808;7.478;2022-10-14T01:06:27;14.30;99.90
12853;DHT22;6495;51.808;7.478;2022-10-14T01:09:07;14.30;99.90
12853;DHT22;6495;51.808;7.478;2022-10-14T01:11:55;14.30;99.90
12853;DHT22;6495;51.808;7.478;2022-10-14T01:14:56;14.30;99.90
12853;DHT22;6495;51.808;7.478;2022-10-14T01:17:38;14.30;99.90
12853;DHT22;6495;51.808;7.478;2022-10-14T01:20:40;14.30;99.90
12853;DHT22;6495;51.808;7.478;2022-10-14T01:23:29;14.30;99.90
12853;DHT22;6495;51.808;7.478;2022-10-14T01:26:23;14.20;99.90
12853;DHT22;6495;51.808;7.478;2022-10-14T01:29:15;14.20;99.90
12853;DHT22;6495;51.808;7.478;2022-10-14T01:31:58;14.20;99.90
12853;DHT22;6495;51.808;7.478;2022-10-14T01:34:35;14.20;99.90
12853;DHT22;6495;51.808;7.478;2022-10-14T01:37:11;14.20;99.90
12853;DHT22;6495;51.808;7.478;2022-10-14T01:39:48;14.20;99.90
12853;DHT22;6495;51.808;7.478;2022-10-14T01:42:22;14.20;99.90
12853;DHT22;6495;51.808;7.478;2022-10-14T01:44:56;14.20;99.90
12853;DHT22;6495;51.808;7.478;2022-10-14T01:47:31;14.20;99.90
12853;DHT22;6495;51.808;7.478;2022-10-14T01:50:06;14.20;99.90
12853;DHT22;6495;51.808;7.478;2022-10-14T01:52:40;14.10;99.90
12853;DHT22;6495;51.808;7.478;2022-10-14T01:55:16;14.20;99.90
12853;DHT22;6495;51.808;7.478;2022-10-14T01:57:49;14.10;99.90
12853;DHT22;6495;51.808;7.478;2022-10-14T02:00:20;14.10;99.90
12853;DHT22;6495;51.808;7.478;2022-10-14T02:02:49;14.10;99.90
12853;DHT22;6495;51.808;7.478;2022-10-14T02:05:21;14.10;99.90
12853;DHT22;6495;51.808;7.478;2022-10-14T02:07:58;14.10;99.90
12853;DHT22;6495;51.808;7.478;2022-10-14T02:10:48;14.10;99.90
12853;DHT22;6495;51.808;7.478;2022-10-14T02:16:31;14.10;99.90
12853;DHT22;6495;51.808;7.478;2022-10-14T02:19:09;14.10;99.90
12853;DHT22;6495;51.808;7.478;2022-10-14T02:21:52;14.10;99.90
12853;DHT22;6495;51.808;7.478;2022-10-14T02:24:27;14.10;99.90
12853;DHT22;6495;51.808;7.478;2022-10-14T02:27:03;14.10;99.90
12853;DHT22;6495;51.808;7.478;2022-10-14T02:29:35;14.00;99.90
12853;DHT22;6495;51.808;7.478;2022-10-14T02:32:07;14.10;99.90
12853;DHT22;6495;51.808;7.478;2022-10-14T02:34:39;14.00;99.90
12853;DHT22;6495;51.808;7.478;2022-10-14T02:37:11;14.00;99.90
12853;DHT22;6495;51.808;7.478;2022-10-14T02:39:45;14.00;99.90
12853;DHT22;6495;51.808;7.478;2022-10-14T02:42:18;14.00;99.90
12853;DHT22;6495;51.808;7.478;2022-10-14T02:44:54;14.00;99.90
12853;DHT22;6495;51.808;7.478;2022-10-14T02:47:24;14.10;99.90
12853;DHT22;6495;51.808;7.478;2022-10-14T02:49:54;14.00;99.90
12853;DHT22;6495;51.808;7.478;2022-10-14T02:52:22;14.00;99.90
12853;DHT22;6495;51.808;7.478;2022-10-14T02:54:51;14.00;99.90
12853;DHT22;6495;51.808;7.478;2022-10-14T02:57:19;14.10;99.90
12853;DHT22;6495;51.808;7.478;2022-10-14T02:59:47;14.00;99.90
12853;DHT22;6495;51.808;7.478;2022-10-14T03:02:15;14.00;99.90
12853;DHT22;6495;51.808;7.478;2022-10-14T03:04:43;14.00;99.90
12853;DHT22;6495;51.808;7.478;2022-10-14T03:07:12;14.00;99.90
12853;DHT22;6495;51.808;7.478;2022-10-14T03:09:40;14.00;99.90
12853;DHT22;6495;51.808;7.478;2022-10-14T03:12:08;14.00;99.90
12853;DHT22;6495;51.808;7.478;2022-10-14T03:14:36;13.90;99.90
12853;DHT22;6495;51.808;7.478;2022-10-14T03:17:04;13.90;99.90
12853;DHT22;6495;51.808;7.478;2022-10-14T03:19:32;13.90;99.90
12853;DHT22;6495;51.808;7.478;2022-10-14T03:22:01;13.90;99.90
12853;DHT22;6495;51.808;7.478;2022-10-14T03:24:30;13.80;99.90
12853;DHT22;6495;51.808;7.478;2022-10-14T03:26:58;13.80;99.90
12853;DHT22;6495;51.808;7.478;2022-10-14T03:29:26;13.80;99.90
12853;DHT22;6495;51.808;7.478;2022-10-14T03:31:54;13.80;99.90
12853;DHT22;6495;51.808;7.478;2022-10-14T03:34:22;13.80;99.90
12853;DHT22;6495;51.808;7.478;2022-10-14T03:36:50;13.80;99.90
12853;DHT22;6495;51.808;7.478;2022-10-14T03:39:18;13.80;99.90
12853;DHT22;6495;51.808;7.478;2022-10-14T03:41:48;13.80;99.90
12853;DHT22;6495;51.808;7.478;2022-10-14T03:44:16;13.80;99.90
12853;DHT22;6495;51.808;7.478;2022-10-14T03:46:44;13.80;99.90
12853;DHT22;6495;51.808;7.478;2022-10-14T03:49:12;13.80;99.90
12853;DHT22;6495;51.808;7.478;2022-10-14T03:51:40;13.80;99.90
12853;DHT22;6495;51.808;7.478;2022-10-14T03:54:08;13.80;99.90
12853;DHT22;6495;51.808;7.478;2022-10-14T03:56:36;13.80;99.90
12853;DHT22;6495;51.808;7.478;2022-10-14T03:59:06;13.80;99.90
12853;DHT22;6495;51.808;7.478;2022-10-14T04:01:34;13.80;99.90
12853;DHT22;6495;51.808;7.478;2022-10-14T04:04:02;13.80;99.90
12853;DHT22;6495;51.808;7.478;2022-10-14T04:06:30;13.70;99.90
12853;DHT22;6495;51.808;7.478;2022-10-14T04:08:58;13.70;99.90
12853;DHT22;6495;51.808;7.478;2022-10-14T04:11:26;13.60;99.90
12853;DHT22;6495;51.808;7.478;2022-10-14T04:13:56;13.60;99.90
12853;DHT22;6495;51.808;7.478;2022-10-14T04:16:26;13.60;99.90
12853;DHT22;6495;51.808;7.478;2022-10-14T04:18:54;13.60;99.90
12853;DHT22;6495;51.808;7.478;2022-10-14T04:21:24;13.60;99.90
12853;DHT22;6495;51.808;7.478;2022-10-14T04:23:52;13.60;99.90
12853;DHT22;6495;51.808;7.478;2022-10-14T04:26:20;13.60;99.90
12853;DHT22;6495;51.808;7.478;2022-10-14T04:28:48;13.60;99.90
12853;DHT22;6495;51.808;7.478;2022-10-14T04:31:17;13.60;99.90
12853;DHT22;6495;51.808;7.478;2022-10-14T04:34:12;13.60;99.90
12853;DHT22;6495;51.808;7.478;2022-10-14T04:36:48;13.60;99.90
12853;DHT22;6495;51.808;7.478;2022-10-14T04:39:16;13.60;99.90
12853;DHT22;6495;51.808;7.478;2022-10-14T04:41:46;13.60;99.90
12853;DHT22;6495;51.808;7.478;2022-10-14T04:44:14;13.60;99.90
12853;DHT22;6495;51.808;7.478;2022-10-14T04:46:41;13.70;99.90
12853;DHT22;6495;51.808;7.478;2022-10-14T04:49:11;13.70;99.90
12853;DHT22;6495;51.808;7.478;2022-10-14T04:51:40;13.70;99.90
12853;DHT22;6495;51.808;7.478;2022-10-14T04:54:08;13.70;99.90
12853;DHT22;6495;51.808;7.478;2022-10-14T04:56:36;13.60;99.90
12853;DHT22;6495;51.808;7.478;2022-10-14T04:59:05;13.60;99.90
12853;DHT22;6495;51.808;7.478;2022-10-14T05:01:33;13.60;99.90
12853;DHT22;6495;51.808;7.478;2022-10-14T05:04:01;13.60;99.90
12853;DHT22;6495;51.808;7.478;2022-10-14T05:06:32;13.60;99.90
12853;DHT22;6495;51.808;7.478;2022-10-14T05:09:00;13.60;99.90
12853;DHT22;6495;51.808;7.478;2022-10-14T05:11:28;13.60;99.90
12853;DHT22;6495;51.808;7.478;2022-10-14T05:13:56;13.60;99.90
12853;DHT22;6495;51.808;7.478;2022-10-14T05:16:24;13.70;99.90
12853;DHT22;6495;51.808;7.478;2022-10-14T05:18:52;13.70;99.90
12853;DHT22;6495;51.808;7.478;2022-10-14T05:21:20;13.70;99.90
12853;DHT22;6495;51.808;7.478;2022-10-14T05:23:50;13.70;99.90
12853;DHT22;6495;51.808;7.478;2022-10-14T05:26:18;13.70;99.90
12853;DHT22;6495;51.808;7.478;2022-10-14T05:28:46;13.70;99.90
12853;DHT22;6495;51.808;7.478;2022-10-14T05:31:14;13.70;99.90
12853;DHT22;6495;51.808;7.478;2022-10-14T05:33:42;13.70;99.90
12853;DHT22;6495;51.808;7.478;2022-10-14T05:36:10;13.70;99.90
12853;DHT22;6495;51.808;7.478;2022-10-14T05:38:38;13.70;99.90
12853;DHT22;6495;51.808;7.478;2022-10-14T05:41:08;13.80;99.90
12853;DHT22;6495;51.808;7.478;2022-10-14T05:43:36;13.80;99.90
12853;DHT22;6495;51.808;7.478;2022-10-14T05:46:04;13.80;99.90
12853;DHT22;6495;51.808;7.478;2022-10-14T05:48:32;13.80;99.90
12853;DHT22;6495;51.808;7.478;2022-10-14T05:51:01;13.80;99.90
12853;DHT22;6495;51.808;7.478;2022-10-14T05:53:29;13.80;99.90
12853;DHT22;6495;51.808;7.478;2022-10-14T05:56:02;13.80;99.90
12853;DHT22;6495;51.808;7.478;2022-10-14T05:58:32;13.80;99.90
12853;DHT22;6495;51.808;7.478;2022-10-14T06:01:01;13.80;99.90
12853;DHT22;6495;51.808;7.478;2022-10-14T06:03:33;13.80;99.90
12853;DHT22;6495;51.808;7.478;2022-10-14T06:06:01;13.80;99.90
12853;DHT22;6495;51.808;7.478;2022-10-14T06:08:29;13.80;99.90
12853;DHT22;6495;51.808;7.478;2022-10-14T06:11:02;13.80;99.90
12853;DHT22;6495;51.808;7.478;2022-10-14T06:13:32;13.80;99.90
12853;DHT22;6495;51.808;7.478;2022-10-14T06:16:02;13.80;99.90
12853;DHT22;6495;51.808;7.478;2022-10-14T06:18:31;13.80;99.90
12853;DHT22;6495;51.808;7.478;2022-10-14T06:20:59;13.80;99.90
12853;DHT22;6495;51.808;7.478;2022-10-14T06:23:27;13.80;99.90
12853;DHT22;6495;51.808;7.478;2022-10-14T06:25:56;13.80;99.90
12853;DHT22;6495;51.808;7.478;2022-10-14T06:28:24;13.70;99.90
12853;DHT22;6495;51.808;7.478;2022-10-14T06:30:54;13.70;99.90
12853;DHT22;6495;51.808;7.478;2022-10-14T06:33:27;13.70;99.90
12853;DHT22;6495;51.808;7.478;2022-10-14T06:35:55;13.70;99.90
12853;DHT22;6495;51.808;7.478;2022-10-14T06:38:23;13.70;99.90
12853;DHT22;6495;51.808;7.478;2022-10-14T06:40:55;13.70;99.90
12853;DHT22;6495;51.808;7.478;2022-10-14T06:43:23;13.60;99.90
12853;DHT22;6495;51.808;7.478;2022-10-14T06:45:51;13.60;99.90
12853;DHT22;6495;51.808;7.478;2022-10-14T06:48:21;13.60;99.90
12853;DHT22;6495;51.808;7.478;2022-10-14T06:50:50;13.60;99.90
12853;DHT22;6495;51.808;7.478;2022-10-14T06:53:18;13.60;99.90
12853;DHT22;6495;51.808;7.478;2022-10-14T06:55:48;13.60;99.90
12853;DHT22;6495;51.808;7.478;2022-10-14T06:58:23;13.60;99.90
12853;DHT22;6495;51.808;7.478;2022-10-14T07:00:51;13.60;99.90
12853;DHT22;6495;51.808;7.478;2022-10-14T07:03:21;13.60;99.90
12853;DHT22;6495;51.808;7.478;2022-10-14T07:05:49;13.60;99.90
12853;DHT22;6495;51.808;7.478;2022-10-14T07:08:21;13.60;99.90
12853;DHT22;6495;51.808;7.478;2022-10-14T07:10:49;13.60;99.90
12853;DHT22;6495;51.808;7.478;2022-10-14T07:13:17;13.70;99.90
12853;DHT22;6495;51.808;7.478;2022-10-14T07:15:46;13.70;99.90
12853;DHT22;6495;51.808;7.478;2022-10-14T07:18:15;13.70;99.90
12853;DHT22;6495;51.808;7.478;2022-10-14T07:20:45;13.70;99.90
12853;DHT22;6495;51.808;7.478;2022-10-14T07:23:13;13.70;99.90
12853;DHT22;6495;51.808;7.478;2022-10-14T07:25:41;13.70;99.90
12853;DHT22;6495;51.808;7.478;2022-10-14T07:28:10;13.70;99.90
12853;DHT22;6495;51.808;7.478;2022-10-14T07:30:38;13.70;99.90
12853;DHT22;6495;51.808;7.478;2022-10-14T07:33:06;13.70;99.90
12853;DHT22;6495;51.808;7.478;2022-10-14T07:35:36;13.70;99.90
12853;DHT22;6495;51.808;7.478;2022-10-14T07:38:07;13.70;99.90
12853;DHT22;6495;51.808;7.478;2022-10-14T07:40:38;13.80;99.90
12853;DHT22;6495;51.808;7.478;2022-10-14T07:43:06;13.80;99.90
12853;DHT22;6495;51.808;7.478;2022-10-14T07:45:38;13.80;99.90
12853;DHT22;6495;51.808;7.478;2022-10-14T07:48:09;13.80;99.90
12853;DHT22;6495;51.808;7.478;2022-10-14T07:50:37;13.80;99.90
12853;DHT22;6495;51.808;7.478;2022-10-14T07:53:21;13.90;99.90
12853;DHT22;6495;51.808;7.478;2022-10-14T07:55:50;13.90;99.90
12853;DHT22;6495;51.808;7.478;2022-10-14T07:58:19;13.90;99.90
12853;DHT22;6495;51.808;7.478;2022-10-14T08:00:48;14.00;99.90
12853;DHT22;6495;51.808;7.478;2022-10-14T08:03:17;14.00;99.90
12853;DHT22;6495;51.808;7.478;2022-10-14T08:05:47;14.00;99.90
12853;DHT22;6495;51.808;7.478;2022-10-14T08:08:17;14.00;99.90
12853;DHT22;6495;51.808;7.478;2022-10-14T08:10:45;14.00;99.90
12853;DHT22;6495;51.808;7.478;2022-10-14T08:13:13;14.00;99.90
12853;DHT22;6495;51.808;7.478;2022-10-14T08:15:41;14.10;99.90
12853;DHT22;6495;51.808;7.478;2022-10-14T08:18:09;14.10;99.90
12853;DHT22;6495;51.808;7.478;2022-10-14T08:20:37;14.10;99.90
12853;DHT22;6495;51.808;7.478;2022-10-14T08:23:06;14.10;99.90
12853;DHT22;6495;51.808;7.478;2022-10-14T08:25:35;14.10;99.90
12853;DHT22;6495;51.808;7.478;2022-10-14T08:28:04;14.10;99.90
12853;DHT22;6495;51.808;7.478;2022-10-14T08:30:32;14.10;99.90
12853;DHT22;6495;51.808;7.478;2022-10-14T08:33:00;14.10;99.90
12853;DHT22;6495;51.808;7.478;2022-10-14T08:35:28;14.20;99.90
12853;DHT22;6495;51.808;7.478;2022-10-14T08:37:57;14.20;99.90
12853;DHT22;6495;51.808;7.478;2022-10-14T08:40:27;14.20;99.90
12853;DHT22;6495;51.808;7.478;2022-10-14T08:43:00;14.10;99.90
12853;DHT22;6495;51.808;7.478;2022-10-14T08:45:37;14.20;99.90
12853;DHT22;6495;51.808;7.478;2022-10-14T08:48:11;14.20;99.90
12853;DHT22;6495;51.808;7.478;2022-10-14T08:50:46;14.20;99.90
12853;DHT22;6495;51.808;7.478;2022-10-14T08:53:22;14.30;99.90
12853;DHT22;6495;51.808;7.478;2022-10-14T08:55:56;14.30;99.90
12853;DHT22;6495;51.808;7.478;2022-10-14T08:58:31;14.40;99.90
12853;DHT22;6495;51.808;7.478;2022-10-14T09:01:13;14.40;99.90
12853;DHT22;6495;51.808;7.478;2022-10-14T09:03:45;14.40;99.90
12853;DHT22;6495;51.808;7.478;2022-10-14T09:06:21;14.40;99.90
12853;DHT22;6495;51.808;7.478;2022-10-14T09:08:54;14.50;99.90
12853;DHT22;6495;51.808;7.478;2022-10-14T09:11:25;14.50;99.90
12853;DHT22;6495;51.808;7.478;2022-10-14T09:14:04;14.60;99.90
12853;DHT22;6495;51.808;7.478;2022-10-14T09:16:36;14.60;99.90
12853;DHT22;6495;51.808;7.478;2022-10-14T09:19:13;14.60;99.90
12853;DHT22;6495;51.808;7.478;2022-10-14T09:21:48;14.60;99.90
12853;DHT22;6495;51.808;7.478;2022-10-14T09:24:22;14.70;99.90
12853;DHT22;6495;51.808;7.478;2022-10-14T09:26:54;14.70;99.90
12853;DHT22;6495;51.808;7.478;2022-10-14T09:29:27;14.70;99.90
12853;DHT22;6495;51.808;7.478;2022-10-14T09:31:58;14.70;99.90
12853;DHT22;6495;51.808;7.478;2022-10-14T09:34:32;14.80;99.90
12853;DHT22;6495;51.808;7.478;2022-10-14T09:37:26;14.80;99.90
12853;DHT22;6495;51.808;7.478;2022-10-14T09:40:00;14.80;99.90
12853;DHT22;6495;51.808;7.478;2022-10-14T09:42:40;14.90;99.90
12853;DHT22;6495;51.808;7.478;2022-10-14T09:45:17;14.90;99.90
12853;DHT22;6495;51.808;7.478;2022-10-14T09:47:50;14.90;99.90
12853;DHT22;6495;51.808;7.478;2022-10-14T09:50:24;15.00;99.90
12853;DHT22;6495;51.808;7.478;2022-10-14T09:53:01;15.00;99.90
12853;DHT22;6495;51.808;7.478;2022-10-14T09:55:38;15.00;99.90
12853;DHT22;6495;51.808;7.478;2022-10-14T09:58:16;15.00;99.90
12853;DHT22;6495;51.808;7.478;2022-10-14T10:00:55;15.00;99.90
12853;DHT22;6495;51.808;7.478;2022-10-14T10:03:26;15.00;99.90
12853;DHT22;6495;51.808;7.478;2022-10-14T10:06:03;15.10;99.90
12853;DHT22;6495;51.808;7.478;2022-10-14T10:08:34;15.10;99.90
12853;DHT22;6495;51.808;7.478;2022-10-14T10:11:06;15.10;99.90
12853;DHT22;6495;51.808;7.478;2022-10-14T10:13:38;15.10;99.90
12853;DHT22;6495;51.808;7.478;2022-10-14T10:16:21;15.20;99.90
12853;DHT22;6495;51.808;7.478;2022-10-14T10:18:51;15.20;99.90
12853;DHT22;6495;51.808;7.478;2022-10-14T10:21:23;15.20;99.90
12853;DHT22;6495;51.808;7.478;2022-10-14T10:23:55;15.30;99.90
12853;DHT22;6495;51.808;7.478;2022-10-14T10:26:26;15.30;99.90
12853;DHT22;6495;51.808;7.478;2022-10-14T10:28:58;15.30;99.90
12853;DHT22;6495;51.808;7.478;2022-10-14T10:31:55;15.40;99.90
12853;DHT22;6495;51.808;7.478;2022-10-14T10:37:57;15.50;99.90
12853;DHT22;6495;51.808;7.478;2022-10-14T10:40:38;15.50;99.90
12853;DHT22;6495;51.808;7.478;2022-10-14T10:43:35;15.50;99.90
12853;DHT22;6495;51.808;7.478;2022-10-14T10:46:29;15.50;99.90
12853;DHT22;6495;51.808;7.478;2022-10-14T10:49:17;15.50;99.90
12853;DHT22;6495;51.808;7.478;2022-10-14T10:51:54;15.60;99.90
12853;DHT22;6495;51.808;7.478;2022-10-14T10:54:35;15.60;99.90
12853;DHT22;6495;51.808;7.478;2022-10-14T10:57:20;15.60;99.90
12853;DHT22;6495;51.808;7.478;2022-10-14T11:00:02;15.60;99.90
12853;DHT22;6495;51.808;7.478;2022-10-14T11:02:53;15.70;99.90
12853;DHT22;6495;51.808;7.478;2022-10-14T11:05:41;15.70;99.90
12853;DHT22;6495;51.808;7.478;2022-10-14T11:08:30;15.70;99.90
12853;DHT22;6495;51.808;7.478;2022-10-14T11:11:28;15.70;99.90
12853;DHT22;6495;51.808;7.478;2022-10-14T11:14:37;15.80;99.90
12853;DHT22;6495;51.808;7.478;2022-10-14T11:17:23;15.80;99.90
12853;DHT22;6495;51.808;7.478;2022-10-14T11:20:21;15.80;99.90
12853;DHT22;6495;51.808;7.478;2022-10-14T11:23:05;15.90;99.90
12853;DHT22;6495;51.808;7.478;2022-10-14T11:25:46;15.90;99.90
12853;DHT22;6495;51.808;7.478;2022-10-14T11:28:28;15.90;99.90
12853;DHT22;6495;51.808;7.478;2022-10-14T11:31:07;16.00;99.90
12853;DHT22;6495;51.808;7.478;2022-10-14T11:34:07;16.00;99.90
12853;DHT22;6495;51.808;7.478;2022-10-14T11:36:59;16.00;99.90
12853;DHT22;6495;51.808;7.478;2022-10-14T11:39:40;16.10;99.90
12853;DHT22;6495;51.808;7.478;2022-10-14T11:42:25;16.10;99.90
12853;DHT22;6495;51.808;7.478;2022-10-14T11:48:23;16.20;99.90
12853;DHT22;6495;51.808;7.478;2022-10-14T11:51:04;16.20;99.90
12853;DHT22;6495;51.808;7.478;2022-10-14T11:53:47;16.20;99.90
12853;DHT22;6495;51.808;7.478;2022-10-14T11:56:33;16.20;99.90
12853;DHT22;6495;51.808;7.478;2022-10-14T11:59:18;16.20;99.90
12853;DHT22;6495;51.808;7.478;2022-10-14T12:01:58;16.20;99.90
12853;DHT22;6495;51.808;7.478;2022-10-14T12:04:32;16.20;99.90
12853;DHT22;6495;51.808;7.478;2022-10-14T12:07:09;16.20;99.90
12853;DHT22;6495;51.808;7.478;2022-10-14T12:09:48;16.20;99.90
12853;DHT22;6495;51.808;7.478;2022-10-14T12:12:27;16.30;99.90
12853;DHT22;6495;51.808;7.478;2022-10-14T12:14:58;16.30;99.90
12853;DHT22;6495;51.808;7.478;2022-10-14T12:17:35;16.30;99.90
12853;DHT22;6495;51.808;7.478;2022-10-14T12:20:19;16.30;99.90
12853;DHT22;6495;51.808;7.478;2022-10-14T12:22:56;16.30;99.90
12853;DHT22;6495;51.808;7.478;2022-10-14T12:25:32;16.30;99.90
12853;DHT22;6495;51.808;7.478;2022-10-14T12:28:08;16.30;99.90
12853;DHT22;6495;51.808;7.478;2022-10-14T12:30:40;16.40;99.90
12853;DHT22;6495;51.808;7.478;2022-10-14T12:33:10;16.40;99.90
12853;DHT22;6495;51.808;7.478;2022-10-14T12:35:50;16.40;99.90
12853;DHT22;6495;51.808;7.478;2022-10-14T12:38:26;16.40;99.90
12853;DHT22;6495;51.808;7.478;2022-10-14T12:44:12;16.40;99.90
12853;DHT22;6495;51.808;7.478;2022-10-14T12:46:45;16.40;99.90
12853;DHT22;6495;51.808;7.478;2022-10-14T12:49:32;16.40;99.90
12853;DHT22;6495;51.808;7.478;2022-10-14T12:52:06;16.50;99.90
12853;DHT22;6495;51.808;7.478;2022-10-14T12:54:36;16.40;99.90
12853;DHT22;6495;51.808;7.478;2022-10-14T12:57:24;16.40;99.90
12853;DHT22;6495;51.808;7.478;2022-10-14T12:59:56;16.50;99.90
12853;DHT22;6495;51.808;7.478;2022-10-14T13:02:30;16.50;99.90
12853;DHT22;6495;51.808;7.478;2022-10-14T13:05:03;16.50;99.90
12853;DHT22;6495;51.808;7.478;2022-10-14T13:07:40;16.50;99.90
12853;DHT22;6495;51.808;7.478;2022-10-14T13:13:49;16.60;99.90
12853;DHT22;6495;51.808;7.478;2022-10-14T13:16:53;16.60;99.90
12853;DHT22;6495;51.808;7.478;2022-10-14T13:19:42;16.60;99.90
12853;DHT22;6495;51.808;7.478;2022-10-14T13:22:38;16.60;99.90
12853;DHT22;6495;51.808;7.478;2022-10-14T13:25:16;16.60;99.90
12853;DHT22;6495;51.808;7.478;2022-10-14T13:27:55;16.60;99.90
12853;DHT22;6495;51.808;7.478;2022-10-14T13:30:52;16.60;99.90
12853;DHT22;6495;51.808;7.478;2022-10-14T13:33:33;16.60;99.90
12853;DHT22;6495;51.808;7.478;2022-10-14T13:36:12;16.60;99.90
12853;DHT22;6495;51.808;7.478;2022-10-14T13:38:53;16.50;99.90
12853;DHT22;6495;51.808;7.478;2022-10-14T13:41:29;16.50;99.90
12853;DHT22;6495;51.808;7.478;2022-10-14T13:44:00;16.50;99.90
12853;DHT22;6495;51.808;7.478;2022-10-14T13:46:34;16.60;99.90
12853;DHT22;6495;51.808;7.478;2022-10-14T13:49:08;16.60;99.90
12853;DHT22;6495;51.808;7.478;2022-10-14T13:51:49;16.50;99.90
12853;DHT22;6495;51.808;7.478;2022-10-14T13:54:21;16.60;99.90
12853;DHT22;6495;51.808;7.478;2022-10-14T13:57:01;16.50;99.90
12853;DHT22;6495;51.808;7.478;2022-10-14T13:59:53;16.50;99.90
12853;DHT22;6495;51.808;7.478;2022-10-14T14:02:47;16.50;99.90
12853;DHT22;6495;51.808;7.478;2022-10-14T14:05:23;16.50;99.90
12853;DHT22;6495;51.808;7.478;2022-10-14T14:07:53;16.50;99.90
12853;DHT22;6495;51.808;7.478;2022-10-14T14:11:02;16.50;99.90
12853;DHT22;6495;51.808;7.478;2022-10-14T14:13:55;16.40;99.90
12853;DHT22;6495;51.808;7.478;2022-10-14T14:16:31;16.40;99.90
12853;DHT22;6495;51.808;7.478;2022-10-14T14:19:03;16.40;99.90
12853;DHT22;6495;51.808;7.478;2022-10-14T14:21:41;16.30;99.90
12853;DHT22;6495;51.808;7.478;2022-10-14T14:24:19;16.30;99.90
12853;DHT22;6495;51.808;7.478;2022-10-14T14:26:55;16.20;99.90
12853;DHT22;6495;51.808;7.478;2022-10-14T14:29:26;16.20;99.90
12853;DHT22;6495;51.808;7.478;2022-10-14T14:31:57;16.20;99.90
12853;DHT22;6495;51.808;7.478;2022-10-14T14:34:36;16.20;99.90
12853;DHT22;6495;51.808;7.478;2022-10-14T14:37:26;16.20;99.90
12853;DHT22;6495;51.808;7.478;2022-10-14T14:40:19;16.20;99.90
12853;DHT22;6495;51.808;7.478;2022-10-14T14:42:51;16.10;99.90
12853;DHT22;6495;51.808;7.478;2022-10-14T14:45:26;16.10;99.90
12853;DHT22;6495;51.808;7.478;2022-10-14T14:48:02;16.10;99.90
12853;DHT22;6495;51.808;7.478;2022-10-14T14:50:36;16.00;99.90
12853;DHT22;6495;51.808;7.478;2022-10-14T14:53:10;16.00;99.90
12853;DHT22;6495;51.808;7.478;2022-10-14T14:55:44;16.00;99.90
12853;DHT22;6495;51.808;7.478;2022-10-14T14:58:24;15.90;99.90
12853;DHT22;6495;51.808;7.478;2022-10-14T15:00:54;15.90;99.90
12853;DHT22;6495;51.808;7.478;2022-10-14T15:03:25;15.90;99.90
12853;DHT22;6495;51.808;7.478;2022-10-14T15:05:58;15.80;99.90
12853;DHT22;6495;51.808;7.478;2022-10-14T15:08:30;15.80;99.90
12853;DHT22;6495;51.808;7.478;2022-10-14T15:11:00;15.80;99.90
12853;DHT22;6495;51.808;7.478;2022-10-14T15:13:31;15.80;99.90
12853;DHT22;6495;51.808;7.478;2022-10-14T15:16:11;15.80;99.90
12853;DHT22;6495;51.808;7.478;2022-10-14T15:18:39;15.80;99.90
12853;DHT22;6495;51.808;7.478;2022-10-14T15:21:18;15.70;99.90
12853;DHT22;6495;51.808;7.478;2022-10-14T15:23:59;15.70;99.90
12853;DHT22;6495;51.808;7.478;2022-10-14T15:26:31;15.70;99.90
12853;DHT22;6495;51.808;7.478;2022-10-14T15:29:10;15.70;99.90
12853;DHT22;6495;51.808;7.478;2022-10-14T15:31:42;15.70;99.90
12853;DHT22;6495;51.808;7.478;2022-10-14T15:34:21;15.70;99.90
12853;DHT22;6495;51.808;7.478;2022-10-14T15:36:51;15.70;99.90
12853;DHT22;6495;51.808;7.478;2022-10-14T15:39:20;15.70;99.90
12853;DHT22;6495;51.808;7.478;2022-10-14T15:41:48;15.70;99.90
12853;DHT22;6495;51.808;7.478;2022-10-14T15:44:17;15.70;99.90
12853;DHT22;6495;51.808;7.478;2022-10-14T15:46:45;15.70;99.90
12853;DHT22;6495;51.808;7.478;2022-10-14T15:49:40;15.80;99.90
12853;DHT22;6495;51.808;7.478;2022-10-14T15:52:13;15.80;99.90
12853;DHT22;6495;51.808;7.478;2022-10-14T15:54:42;15.80;99.90
12853;DHT22;6495;51.808;7.478;2022-10-14T15:57:11;15.80;99.90
12853;DHT22;6495;51.808;7.478;2022-10-14T15:59:44;15.80;99.90
12853;DHT22;6495;51.808;7.478;2022-10-14T16:02:16;15.80;99.90
12853;DHT22;6495;51.808;7.478;2022-10-14T16:04:46;15.80;99.90
12853;DHT22;6495;51.808;7.478;2022-10-14T16:07:39;15.70;99.90
12853;DHT22;6495;51.808;7.478;2022-10-14T16:10:10;15.70;99.90
12853;DHT22;6495;51.808;7.478;2022-10-14T16:12:40;15.70;99.90
12853;DHT22;6495;51.808;7.478;2022-10-14T16:15:26;15.70;99.90
12853;DHT22;6495;51.808;7.478;2022-10-14T16:17:57;15.70;99.90
12853;DHT22;6495;51.808;7.478;2022-10-14T16:20:30;15.70;99.90
12853;DHT22;6495;51.808;7.478;2022-10-14T16:23:00;15.70;99.90
12853;DHT22;6495;51.808;7.478;2022-10-14T16:25:33;15.70;99.90
12853;DHT22;6495;51.808;7.478;2022-10-14T16:28:04;15.70;99.90
12853;DHT22;6495;51.808;7.478;2022-10-14T16:30:37;15.70;99.90
12853;DHT22;6495;51.808;7.478;2022-10-14T16:33:09;15.70;99.90
12853;DHT22;6495;51.808;7.478;2022-10-14T16:35:42;15.70;99.90
12853;DHT22;6495;51.808;7.478;2022-10-14T16:38:14;15.70;99.90
12853;DHT22;6495;51.808;7.478;2022-10-14T16:40:52;15.70;99.90
12853;DHT22;6495;51.808;7.478;2022-10-14T16:43:21;15.70;99.90
12853;DHT22;6495;51.808;7.478;2022-10-14T16:45:50;15.70;99.90